Time;durP1;ratioP1;P1;durP2;ratioP2;P2;SDS_P1;SDS_P2;PMS_P1;PMS_P2;Temp;Humidity;BMP_temperature;BMP_pressure;BME280_temperature;BME280_humidity;BME280_pressure;Samples;Min_cycle;Max_cycle;Signal;HPM_P1;HPM_P2
2021/03/17 00:01:16;;;;;;;;;;;20.10;99.90;;;;;;4989709;28;20348;-81
2021/03/17 00:03:43;;;;;;;;;;;20.10;99.90;;;;;;4978951;28;19961;-82
2021/03/17 00:06:10;;;;;;;;;;;20.20;99.90;;;;;;4995316;28;19923;-82
2021/03/17 00:08:37;;;;;;;;;;;20.20;99.90;;;;;;4994660;28;19910;-82
2021/03/17 00:11:03;;;;;;;;;;;20.30;99.90;;;;;;4973938;28;19914;-84
2021/03/17 00:13:30;;;;;;;;;;;20.20;99.90;;;;;;4984283;28;20407;-82
2021/03/17 00:15:59;;;;;;;;;;;20.30;99.90;;;;;;4990767;28;19910;-80
2021/03/17 00:18:27;;;;;;;;;;;20.40;99.90;;;;;;4986829;28;20357;-83
2021/03/17 00:20:53;;;;;;;;;;;20.50;99.90;;;;;;4974494;28;19914;-82
2021/03/17 00:23:23;;;;;;;;;;;20.70;99.90;;;;;;4978936;28;19914;-83
2021/03/17 00:25:50;;;;;;;;;;;20.80;99.90;;;;;;4994356;28;19957;-83
2021/03/17 00:28:18;;;;;;;;;;;20.90;99.90;;;;;;4992857;28;19914;-79
2021/03/17 00:30:46;;;;;;;;;;;21.10;99.90;;;;;;4992909;28;19952;-82
2021/03/17 00:33:16;;;;;;;;;;;21.10;99.90;;;;;;4993333;28;20068;-80
2021/03/17 00:35:44;;;;;;;;;;;21.20;99.90;;;;;;4992815;28;19918;-80
2021/03/17 00:38:11;;;;;;;;;;;21.10;99.90;;;;;;4992697;28;20334;-80
2021/03/17 00:40:38;;;;;;;;;;;21.10;99.90;;;;;;4981466;28;20365;-84
2021/03/17 00:43:05;;;;;;;;;;;21.10;99.90;;;;;;4992843;28;19910;-81
2021/03/17 00:45:38;;;;;;;;;;;21.10;99.90;;;;;;4993925;28;19918;-81
2021/03/17 00:48:04;;;;;;;;;;;21.20;99.90;;;;;;4984519;28;19918;-82
2021/03/17 00:50:34;;;;;;;;;;;21.10;99.90;;;;;;4988998;28;19920;-80
2021/03/17 00:53:01;;;;;;;;;;;21.10;99.90;;;;;;4992090;28;19949;-80
2021/03/17 00:55:29;;;;;;;;;;;21.00;99.90;;;;;;4993222;28;20024;-81
2021/03/17 00:57:59;;;;;;;;;;;21.10;99.90;;;;;;4992444;28;20004;-79
2021/03/17 01:00:25;;;;;;;;;;;21.30;99.90;;;;;;4992892;28;20352;-82
2021/03/17 01:02:54;;;;;;;;;;;21.50;99.90;;;;;;4990020;28;19918;-82
2021/03/17 01:05:21;;;;;;;;;;;21.60;99.90;;;;;;4976222;28;20464;-80
2021/03/17 01:07:51;;;;;;;;;;;21.70;99.90;;;;;;4989747;28;20343;-81
2021/03/17 01:10:19;;;;;;;;;;;21.80;99.90;;;;;;4982902;28;20388;-82
2021/03/17 01:12:47;;;;;;;;;;;21.80;99.90;;;;;;4987453;28;20271;-83
2021/03/17 01:15:17;;;;;;;;;;;21.70;99.90;;;;;;4987596;28;19914;-81
2021/03/17 01:17:47;;;;;;;;;;;21.70;99.90;;;;;;4983880;28;20280;-82
2021/03/17 01:20:14;;;;;;;;;;;21.60;99.90;;;;;;4992667;28;19918;-81
2021/03/17 01:22:41;;;;;;;;;;;21.60;99.90;;;;;;4985952;28;20005;-81
2021/03/17 01:25:11;;;;;;;;;;;21.70;99.90;;;;;;4993545;28;19971;-80
2021/03/17 01:30:29;;;;;;;;;;;21.80;99.90;;;;;;4981222;28;19918;-80
2021/03/17 01:32:55;;;;;;;;;;;21.80;99.90;;;;;;4991411;28;19921;-79
2021/03/17 01:35:22;;;;;;;;;;;21.80;99.90;;;;;;4992992;28;19921;-83
2021/03/17 01:37:55;;;;;;;;;;;21.80;99.90;;;;;;4992787;28;19921;-83
2021/03/17 01:40:24;;;;;;;;;;;21.90;99.90;;;;;;4992834;28;19921;-82
2021/03/17 01:42:52;;;;;;;;;;;21.70;99.90;;;;;;4993063;28;19914;-80
2021/03/17 01:45:19;;;;;;;;;;;21.80;99.90;;;;;;4987805;28;20064;-83
2021/03/17 01:47:46;;;;;;;;;;;21.80;99.90;;;;;;4978416;28;19918;-83
2021/03/17 01:50:18;;;;;;;;;;;21.70;99.90;;;;;;4993278;28;19916;-84
2021/03/17 01:52:47;;;;;;;;;;;21.70;99.90;;;;;;4992896;28;19914;-83
2021/03/17 01:55:15;;;;;;;;;;;21.60;99.90;;;;;;4993327;28;19917;-80
2021/03/17 01:57:42;;;;;;;;;;;21.50;99.90;;;;;;4989599;28;20030;-82
2021/03/17 02:00:10;;;;;;;;;;;21.50;99.90;;;;;;4991966;28;19995;-82
2021/03/17 02:02:38;;;;;;;;;;;21.50;99.90;;;;;;4990799;28;19921;-81
2021/03/17 02:05:12;;;;;;;;;;;21.50;99.90;;;;;;4991217;28;19965;-81
2021/03/17 02:07:39;;;;;;;;;;;21.40;99.90;;;;;;4993369;28;19925;-82
2021/03/17 02:10:08;;;;;;;;;;;21.50;99.90;;;;;;4993675;28;19913;-81
2021/03/17 02:12:53;;;;;;;;;;;21.50;99.90;;;;;;4992814;28;19964;-81
2021/03/17 02:15:28;;;;;;;;;;;21.50;99.90;;;;;;4987609;28;19914;-83
2021/03/17 02:17:58;;;;;;;;;;;21.50;99.90;;;;;;4988915;28;19964;-84
2021/03/17 02:20:26;;;;;;;;;;;21.50;99.90;;;;;;4973799;28;19976;-80
2021/03/17 02:22:56;;;;;;;;;;;21.50;99.90;;;;;;4991888;28;19969;-82
2021/03/17 02:25:35;;;;;;;;;;;21.60;99.90;;;;;;4981179;28;20021;-80
2021/03/17 02:28:08;;;;;;;;;;;21.60;99.90;;;;;;5014539;28;19902;-82
2021/03/17 02:30:38;;;;;;;;;;;21.50;99.90;;;;;;4998552;28;20471;-82
2021/03/17 02:33:22;;;;;;;;;;;21.40;99.90;;;;;;4983826;28;19910;-81
2021/03/17 02:35:53;;;;;;;;;;;21.40;99.90;;;;;;4991136;28;19914;-80
2021/03/17 02:38:21;;;;;;;;;;;21.50;99.90;;;;;;4992366;28;20019;-83
2021/03/17 02:40:49;;;;;;;;;;;21.50;99.90;;;;;;4992378;28;19909;-83
2021/03/17 02:43:20;;;;;;;;;;;21.50;99.90;;;;;;4990753;28;19965;-79
2021/03/17 02:45:54;;;;;;;;;;;21.50;99.90;;;;;;4991649;28;19914;-80
2021/03/17 02:48:27;;;;;;;;;;;21.50;99.90;;;;;;4991095;28;19914;-82
2021/03/17 02:50:55;;;;;;;;;;;21.50;99.90;;;;;;4974684;28;20056;-81
2021/03/17 02:53:26;;;;;;;;;;;21.60;99.90;;;;;;4990154;28;19976;-81
2021/03/17 02:55:58;;;;;;;;;;;21.60;99.90;;;;;;4978611;28;19925;-80
2021/03/17 02:58:25;;;;;;;;;;;21.60;99.90;;;;;;4990779;28;19917;-81
2021/03/17 03:00:53;;;;;;;;;;;21.70;99.90;;;;;;4991034;28;19921;-82
2021/03/17 03:03:24;;;;;;;;;;;21.70;99.90;;;;;;4991451;28;20019;-80
2021/03/17 03:05:54;;;;;;;;;;;21.80;99.90;;;;;;4991726;28;19954;-82
2021/03/17 03:08:22;;;;;;;;;;;21.90;99.90;;;;;;4991481;28;19920;-81
2021/03/17 03:10:50;;;;;;;;;;;22.00;99.90;;;;;;4987298;28;20288;-80
2021/03/17 03:13:17;;;;;;;;;;;22.00;99.90;;;;;;4995116;28;20367;-85
2021/03/17 03:15:45;;;;;;;;;;;21.90;99.90;;;;;;4995821;28;19917;-82
2021/03/17 03:18:13;;;;;;;;;;;21.90;99.90;;;;;;5008942;28;20354;-84
2021/03/17 03:20:41;;;;;;;;;;;21.90;99.90;;;;;;5009483;28;19975;-81
2021/03/17 03:23:08;;;;;;;;;;;21.80;99.90;;;;;;4986156;28;19922;-81
2021/03/17 03:25:35;;;;;;;;;;;21.80;99.90;;;;;;4984083;28;19918;-81
2021/03/17 03:28:13;;;;;;;;;;;21.70;99.90;;;;;;4988419;28;19941;-80
2021/03/17 03:30:43;;;;;;;;;;;21.70;99.90;;;;;;4984356;28;20253;-83
2021/03/17 03:33:09;;;;;;;;;;;21.60;99.90;;;;;;4985932;28;20367;-82
2021/03/17 03:35:36;;;;;;;;;;;21.60;99.90;;;;;;4986356;28;19976;-81
2021/03/17 03:38:04;;;;;;;;;;;21.60;99.90;;;;;;4988234;28;19944;-82
2021/03/17 03:40:31;;;;;;;;;;;21.50;99.90;;;;;;4985048;28;19965;-81
2021/03/17 03:42:57;;;;;;;;;;;21.50;99.90;;;;;;4991877;28;20005;-81
2021/03/17 03:45:24;;;;;;;;;;;21.60;99.90;;;;;;4984923;28;20016;-80
2021/03/17 03:47:51;;;;;;;;;;;21.60;99.90;;;;;;4987680;28;20053;-78
2021/03/17 03:50:19;;;;;;;;;;;21.60;99.90;;;;;;4994024;28;19933;-81
2021/03/17 03:52:58;;;;;;;;;;;21.60;99.90;;;;;;4992203;28;20551;-81
2021/03/17 03:55:36;;;;;;;;;;;21.60;99.90;;;;;;4993241;28;20422;-84
2021/03/17 03:58:03;;;;;;;;;;;21.60;99.90;;;;;;4994276;28;19914;-82
2021/03/17 04:00:33;;;;;;;;;;;21.60;99.90;;;;;;4993821;28;19921;-79
2021/03/17 04:03:00;;;;;;;;;;;21.70;99.90;;;;;;4989948;28;19917;-79
2021/03/17 04:05:32;;;;;;;;;;;21.50;99.90;;;;;;4993307;28;19917;-81
2021/03/17 04:08:06;;;;;;;;;;;21.40;99.90;;;;;;4992890;28;19921;-79
2021/03/17 04:10:34;;;;;;;;;;;21.40;99.90;;;;;;4992135;28;20349;-81
2021/03/17 04:13:03;;;;;;;;;;;21.30;99.90;;;;;;4994224;28;19920;-82
2021/03/17 04:15:32;;;;;;;;;;;21.30;99.90;;;;;;4994725;28;19914;-85
2021/03/17 04:18:02;;;;;;;;;;;21.30;99.90;;;;;;4993900;28;20346;-80
2021/03/17 04:20:42;;;;;;;;;;;21.30;99.90;;;;;;4988130;28;20504;-82
2021/03/17 04:23:10;;;;;;;;;;;21.30;99.90;;;;;;4975187;28;19991;-79
2021/03/17 04:25:38;;;;;;;;;;;21.40;99.90;;;;;;4988336;28;19930;-82
2021/03/17 04:28:08;;;;;;;;;;;21.50;99.90;;;;;;4990613;28;19914;-81
2021/03/17 04:30:35;;;;;;;;;;;21.60;99.90;;;;;;4981505;28;19918;-82
2021/03/17 04:33:04;;;;;;;;;;;21.70;99.90;;;;;;4990386;28;20531;-79
2021/03/17 04:35:30;;;;;;;;;;;21.70;99.90;;;;;;4990195;28;20246;-80
2021/03/17 04:37:57;;;;;;;;;;;21.60;99.90;;;;;;4993452;28;19957;-79
2021/03/17 04:40:24;;;;;;;;;;;21.60;99.90;;;;;;4992878;28;20414;-81
2021/03/17 04:42:51;;;;;;;;;;;21.60;99.90;;;;;;4993905;28;20009;-82
2021/03/17 04:45:18;;;;;;;;;;;21.60;99.90;;;;;;4992580;28;19917;-83
2021/03/17 04:47:46;;;;;;;;;;;21.70;99.90;;;;;;4993003;28;19964;-80
2021/03/17 04:50:17;;;;;;;;;;;21.70;99.90;;;;;;4989906;28;19952;-82
2021/03/17 04:52:44;;;;;;;;;;;21.60;99.90;;;;;;4993263;28;19949;-82
2021/03/17 04:55:15;;;;;;;;;;;21.30;99.90;;;;;;4994168;28;19917;-87
2021/03/17 04:57:42;;;;;;;;;;;21.30;99.90;;;;;;4986263;28;19914;-83
2021/03/17 05:00:16;;;;;;;;;;;21.30;99.90;;;;;;4983744;28;19918;-80
2021/03/17 05:02:45;;;;;;;;;;;21.30;99.90;;;;;;4982323;28;19914;-79
2021/03/17 05:05:12;;;;;;;;;;;21.20;99.90;;;;;;4986715;28;19918;-81
2021/03/17 05:07:41;;;;;;;;;;;21.20;99.90;;;;;;4994187;28;19997;-80
2021/03/17 05:10:08;;;;;;;;;;;21.00;99.90;;;;;;4990892;28;19937;-81
2021/03/17 05:12:37;;;;;;;;;;;20.70;99.90;;;;;;4992364;28;19980;-79
2021/03/17 05:15:04;;;;;;;;;;;20.40;99.90;;;;;;4991858;28;20022;-79
2021/03/17 05:17:32;;;;;;;;;;;20.30;99.90;;;;;;4992449;28;19914;-84
2021/03/17 05:20:00;;;;;;;;;;;20.20;99.90;;;;;;4992303;28;20272;-82
2021/03/17 05:22:28;;;;;;;;;;;20.20;99.90;;;;;;4990821;28;19985;-83
2021/03/17 05:24:55;;;;;;;;;;;20.30;99.90;;;;;;4994002;28;19914;-83
2021/03/17 05:27:26;;;;;;;;;;;20.40;99.90;;;;;;4991285;28;20305;-79
2021/03/17 05:29:54;;;;;;;;;;;20.40;99.90;;;;;;4983135;28;19920;-83
2021/03/17 05:32:21;;;;;;;;;;;20.30;99.90;;;;;;4994190;28;19910;-86
2021/03/17 05:34:56;;;;;;;;;;;20.20;99.90;;;;;;4987706;28;19922;-82
2021/03/17 05:37:25;;;;;;;;;;;20.00;99.90;;;;;;4986072;28;20565;-83
2021/03/17 05:39:52;;;;;;;;;;;19.90;99.90;;;;;;4981628;28;20379;-82
2021/03/17 05:42:21;;;;;;;;;;;19.80;99.90;;;;;;4997049;28;19978;-82
2021/03/17 05:44:47;;;;;;;;;;;19.80;99.90;;;;;;5004358;28;19940;-81
2021/03/17 05:47:16;;;;;;;;;;;20.00;99.90;;;;;;4989563;28;19926;-79
2021/03/17 05:49:44;;;;;;;;;;;20.10;99.90;;;;;;4988199;28;19914;-86
2021/03/17 05:52:10;;;;;;;;;;;20.10;99.90;;;;;;5007327;28;20060;-83
2021/03/17 05:54:37;;;;;;;;;;;20.20;99.90;;;;;;4993929;28;20438;-83
2021/03/17 05:57:11;;;;;;;;;;;20.30;99.90;;;;;;4992534;28;19993;-85
2021/03/17 05:59:39;;;;;;;;;;;20.50;99.90;;;;;;4994169;28;19910;-83
2021/03/17 06:02:07;;;;;;;;;;;20.60;99.90;;;;;;4988447;28;19914;-85
2021/03/17 06:04:39;;;;;;;;;;;20.60;99.90;;;;;;4993064;28;19920;-82
2021/03/17 06:07:10;;;;;;;;;;;20.50;99.90;;;;;;4992320;28;19921;-83
2021/03/17 06:09:37;;;;;;;;;;;20.40;99.90;;;;;;4990892;28;20012;-89
2021/03/17 06:12:07;;;;;;;;;;;20.30;99.90;;;;;;4991152;28;19968;-86
2021/03/17 06:14:35;;;;;;;;;;;20.30;99.90;;;;;;4991327;28;19937;-86
2021/03/17 06:17:06;;;;;;;;;;;20.20;99.90;;;;;;4992027;28;19920;-83
2021/03/17 06:19:34;;;;;;;;;;;20.00;99.90;;;;;;4978974;28;19914;-81
2021/03/17 06:22:01;;;;;;;;;;;19.90;99.90;;;;;;4985414;28;19920;-82
2021/03/17 06:24:28;;;;;;;;;;;19.60;99.90;;;;;;4991333;28;19918;-83
2021/03/17 06:26:55;;;;;;;;;;;19.40;99.90;;;;;;4991113;28;19930;-83
2021/03/17 06:29:24;;;;;;;;;;;19.10;99.90;;;;;;4991503;28;20016;-83
2021/03/17 06:31:51;;;;;;;;;;;19.10;99.90;;;;;;4992582;28;19917;-81
2021/03/17 06:34:18;;;;;;;;;;;19.00;99.90;;;;;;4982742;28;19914;-79
2021/03/17 06:36:52;;;;;;;;;;;18.90;99.90;;;;;;4988416;28;20001;-80
2021/03/17 06:39:20;;;;;;;;;;;18.70;99.90;;;;;;4984987;28;19952;-81
2021/03/17 06:41:50;;;;;;;;;;;18.70;99.90;;;;;;4980417;28;19914;-80
2021/03/17 06:44:24;;;;;;;;;;;18.70;99.90;;;;;;4981630;28;19910;-82
2021/03/17 06:47:09;;;;;;;;;;;18.70;99.90;;;;;;4984644;28;19960;-81
2021/03/17 06:49:41;;;;;;;;;;;18.70;99.90;;;;;;4975488;28;20001;-81
2021/03/17 06:52:26;;;;;;;;;;;18.70;99.90;;;;;;4975318;28;20016;-82
2021/03/17 06:55:11;;;;;;;;;;;18.80;99.90;;;;;;4981432;28;19914;-80
2021/03/17 06:57:39;;;;;;;;;;;18.70;99.90;;;;;;4988986;28;20308;-82
2021/03/17 07:00:26;;;;;;;;;;;18.70;99.90;;;;;;4976263;28;19916;-82
2021/03/17 07:02:54;;;;;;;;;;;18.60;99.90;;;;;;4982939;28;19913;-81
2021/03/17 07:05:21;;;;;;;;;;;18.50;99.90;;;;;;4986438;28;19976;-81
2021/03/17 07:08:08;;;;;;;;;;;18.50;99.90;;;;;;4982898;28;20174;-79
2021/03/17 07:10:40;;;;;;;;;;;18.50;99.90;;;;;;4986981;28;19996;-79
2021/03/17 07:13:07;;;;;;;;;;;18.60;99.90;;;;;;4979933;28;19916;-79
2021/03/17 07:15:35;;;;;;;;;;;18.50;99.90;;;;;;4974930;28;19914;-80
2021/03/17 07:18:12;;;;;;;;;;;18.50;99.90;;;;;;4974839;28;19972;-81
2021/03/17 07:20:40;;;;;;;;;;;18.50;99.90;;;;;;4977998;28;19943;-79
2021/03/17 07:23:25;;;;;;;;;;;18.50;99.90;;;;;;4993559;28;19914;-80
2021/03/17 07:26:10;;;;;;;;;;;18.60;99.90;;;;;;4984504;28;19929;-83
2021/03/17 07:28:49;;;;;;;;;;;18.60;99.90;;;;;;4975207;28;19911;-82
2021/03/17 07:31:27;;;;;;;;;;;18.60;99.90;;;;;;4973158;28;20392;-82
2021/03/17 07:33:54;;;;;;;;;;;18.50;99.90;;;;;;4976624;28;19914;-81
2021/03/17 07:36:33;;;;;;;;;;;18.50;99.90;;;;;;4986196;28;19918;-80
2021/03/17 07:39:02;;;;;;;;;;;18.60;99.90;;;;;;4981316;28;20303;-79
2021/03/17 07:41:29;;;;;;;;;;;18.60;99.90;;;;;;4988470;28;19925;-82
2021/03/17 07:43:59;;;;;;;;;;;18.70;99.90;;;;;;4977583;28;19922;-81
2021/03/17 07:46:26;;;;;;;;;;;18.60;99.90;;;;;;4973704;28;20532;-82
2021/03/17 07:48:53;;;;;;;;;;;18.70;99.90;;;;;;4986800;28;20008;-82
2021/03/17 07:51:20;;;;;;;;;;;18.70;99.90;;;;;;4973706;28;19914;-79
2021/03/17 07:53:53;;;;;;;;;;;18.70;99.90;;;;;;4991663;28;19949;-83
2021/03/17 07:56:24;;;;;;;;;;;18.60;99.90;;;;;;4988202;28;19918;-80
2021/03/17 07:58:55;;;;;;;;;;;18.60;99.90;;;;;;4985860;28;19914;-83
2021/03/17 08:01:24;;;;;;;;;;;18.50;99.90;;;;;;4988541;28;19910;-84
2021/03/17 08:03:51;;;;;;;;;;;18.50;99.90;;;;;;4992981;28;19918;-84
2021/03/17 08:06:20;;;;;;;;;;;18.50;99.90;;;;;;4981836;28;19918;-83
2021/03/17 08:08:53;;;;;;;;;;;18.50;99.90;;;;;;4994069;28;19928;-83
2021/03/17 08:11:20;;;;;;;;;;;18.50;99.90;;;;;;4992847;28;20376;-80
2021/03/17 08:13:51;;;;;;;;;;;18.50;99.90;;;;;;4992774;28;20345;-81
2021/03/17 08:16:19;;;;;;;;;;;18.50;99.90;;;;;;4993118;28;19910;-83
2021/03/17 08:18:47;;;;;;;;;;;18.50;99.90;;;;;;4993672;28;20351;-88
2021/03/17 08:21:14;;;;;;;;;;;18.60;99.90;;;;;;4993434;28;20052;-87
2021/03/17 08:23:51;;;;;;;;;;;18.60;99.90;;;;;;4995875;28;19933;-85
2021/03/17 08:26:20;;;;;;;;;;;18.50;99.90;;;;;;4995961;28;20025;-82
2021/03/17 08:28:54;;;;;;;;;;;18.30;99.90;;;;;;4992901;28;20385;-83
2021/03/17 08:31:36;;;;;;;;;;;18.20;99.90;;;;;;4994787;28;19986;-85
2021/03/17 08:34:35;;;;;;;;;;;18.10;99.90;;;;;;4993478;28;20280;-90
2021/03/17 08:37:03;;;;;;;;;;;18.20;99.90;;;;;;4933020;28;19922;-84
2021/03/17 08:39:30;;;;;;;;;;;18.10;99.90;;;;;;4996643;28;19921;-83
2021/03/17 08:41:57;;;;;;;;;;;18.10;99.90;;;;;;4993412;28;19918;-84
2021/03/17 08:44:24;;;;;;;;;;;18.10;99.90;;;;;;4993648;28;19921;-84
2021/03/17 08:46:51;;;;;;;;;;;18.10;99.90;;;;;;4979544;28;19925;-85
2021/03/17 08:49:38;;;;;;;;;;;18.10;99.90;;;;;;4974017;28;20361;-84
2021/03/17 08:52:06;;;;;;;;;;;18.10;99.90;;;;;;4975223;28;19917;-83
2021/03/17 08:54:41;;;;;;;;;;;18.10;99.90;;;;;;4975299;28;19958;-83
2021/03/17 08:57:09;;;;;;;;;;;18.10;99.90;;;;;;4972638;28;19911;-84
2021/03/17 08:59:42;;;;;;;;;;;18.20;99.90;;;;;;4974097;28;19910;-84
2021/03/17 09:02:29;;;;;;;;;;;18.30;99.90;;;;;;4974983;28;20328;-84
2021/03/17 09:04:57;;;;;;;;;;;18.40;99.90;;;;;;4967221;28;19961;-84
2021/03/17 09:07:28;;;;;;;;;;;18.40;99.90;;;;;;4974851;28;20365;-84
2021/03/17 09:10:20;;;;;;;;;;;18.30;99.90;;;;;;4974937;28;19910;-84
2021/03/17 09:12:47;;;;;;;;;;;18.20;99.90;;;;;;4972187;28;20290;-85
2021/03/17 09:15:18;;;;;;;;;;;18.10;99.90;;;;;;4974475;28;19914;-85
2021/03/17 09:17:51;;;;;;;;;;;18.10;99.90;;;;;;4974063;28;19917;-84
2021/03/17 09:20:18;;;;;;;;;;;18.10;99.90;;;;;;4972926;28;20369;-82
2021/03/17 09:22:49;;;;;;;;;;;18.10;99.90;;;;;;4975192;28;19916;-82
2021/03/17 09:25:17;;;;;;;;;;;18.10;99.90;;;;;;4974964;28;19910;-85
2021/03/17 09:27:53;;;;;;;;;;;18.20;99.90;;;;;;4976198;28;19968;-86
2021/03/17 09:30:21;;;;;;;;;;;18.20;99.90;;;;;;4976563;28;19938;-85
2021/03/17 09:32:49;;;;;;;;;;;18.30;99.90;;;;;;4977625;28;19949;-83
2021/03/17 09:35:17;;;;;;;;;;;18.30;99.90;;;;;;4976542;28;19914;-84
2021/03/17 09:37:43;;;;;;;;;;;18.30;99.90;;;;;;4977127;28;19922;-83
2021/03/17 09:40:13;;;;;;;;;;;18.40;99.90;;;;;;4974447;28;19918;-84
2021/03/17 09:42:40;;;;;;;;;;;18.40;99.90;;;;;;4976977;28;20373;-83
2021/03/17 09:45:09;;;;;;;;;;;18.40;99.90;;;;;;4974324;28;19914;-83
2021/03/17 09:47:36;;;;;;;;;;;18.40;99.90;;;;;;4975959;28;20336;-85
2021/03/17 09:50:03;;;;;;;;;;;18.30;99.90;;;;;;4977084;28;19910;-82
2021/03/17 09:52:30;;;;;;;;;;;18.30;99.90;;;;;;4995299;28;19916;-86
2021/03/17 09:54:57;;;;;;;;;;;18.30;99.90;;;;;;4993991;28;20289;-83
2021/03/17 09:57:24;;;;;;;;;;;18.40;99.90;;;;;;4995181;28;20383;-85
2021/03/17 09:59:50;;;;;;;;;;;18.30;99.90;;;;;;4992840;28;19916;-85
2021/03/17 10:02:26;;;;;;;;;;;18.40;99.90;;;;;;4991976;28;19916;-84
2021/03/17 10:04:55;;;;;;;;;;;18.30;99.90;;;;;;4987816;28;20048;-85
2021/03/17 10:07:23;;;;;;;;;;;18.40;99.90;;;;;;4993119;28;19918;-87
2021/03/17 10:09:51;;;;;;;;;;;18.50;99.90;;;;;;4994207;28;19978;-85
2021/03/17 10:12:19;;;;;;;;;;;18.50;99.90;;;;;;4994992;28;19910;-84
2021/03/17 10:14:50;;;;;;;;;;;18.40;99.90;;;;;;5010522;28;19909;-86
2021/03/17 10:17:18;;;;;;;;;;;18.40;99.90;;;;;;4995966;28;19931;-83
2021/03/17 10:19:49;;;;;;;;;;;18.40;99.90;;;;;;4979577;28;19920;-85
2021/03/17 10:22:16;;;;;;;;;;;18.40;99.90;;;;;;4974250;28;20379;-82
2021/03/17 10:24:44;;;;;;;;;;;18.40;99.90;;;;;;4975028;28;20000;-83
2021/03/17 10:27:14;;;;;;;;;;;18.50;99.90;;;;;;4974442;28;19922;-84
2021/03/17 10:29:41;;;;;;;;;;;18.50;99.90;;;;;;4973980;28;20001;-83
2021/03/17 10:32:09;;;;;;;;;;;18.60;99.90;;;;;;4978111;28;20373;-84
2021/03/17 10:34:37;;;;;;;;;;;18.70;99.90;;;;;;4991232;28;19924;-85
2021/03/17 10:37:04;;;;;;;;;;;18.70;99.90;;;;;;4982851;28;19922;-87
2021/03/17 10:39:32;;;;;;;;;;;18.80;99.90;;;;;;4988257;28;19921;-92
2021/03/17 10:41:59;;;;;;;;;;;18.90;99.90;;;;;;4992323;28;20028;-90
2021/03/17 10:44:28;;;;;;;;;;;18.90;99.90;;;;;;4991908;28;19940;-88
2021/03/17 10:47:10;;;;;;;;;;;19.00;99.90;;;;;;4989240;28;19975;-85
2021/03/17 10:49:38;;;;;;;;;;;18.90;99.90;;;;;;4992572;28;19914;-88
2021/03/17 10:52:05;;;;;;;;;;;18.90;99.90;;;;;;4988215;28;19949;-85
2021/03/17 10:54:38;;;;;;;;;;;18.90;99.90;;;;;;4992745;28;19914;-86
2021/03/17 10:57:05;;;;;;;;;;;18.90;99.90;;;;;;4975943;28;19917;-86
2021/03/17 10:59:33;;;;;;;;;;;19.00;99.90;;;;;;4990830;28;20005;-86
2021/03/17 11:02:18;;;;;;;;;;;19.00;99.90;;;;;;4991360;28;20336;-87
2021/03/17 11:05:03;;;;;;;;;;;19.00;99.90;;;;;;4990235;28;20316;-86
2021/03/17 11:08:04;;;;;;;;;;;19.00;99.90;;;;;;4984028;28;20008;-86
2021/03/17 11:10:39;;;;;;;;;;;19.10;99.90;;;;;;4954778;28;19944;-87
2021/03/17 11:13:17;;;;;;;;;;;19.20;99.90;;;;;;4988376;28;20250;-84
2021/03/17 11:15:51;;;;;;;;;;;19.20;99.90;;;;;;4994321;28;19917;-87
2021/03/17 11:18:35;;;;;;;;;;;19.10;99.90;;;;;;4991217;28;19960;-84
2021/03/17 11:21:03;;;;;;;;;;;19.20;99.90;;;;;;4992994;28;19910;-86
2021/03/17 11:23:32;;;;;;;;;;;19.20;99.90;;;;;;4992870;28;19910;-84
2021/03/17 11:25:58;;;;;;;;;;;19.10;99.90;;;;;;4992611;28;19918;-83
2021/03/17 11:28:26;;;;;;;;;;;19.20;99.90;;;;;;4990841;28;19955;-85
2021/03/17 11:30:55;;;;;;;;;;;19.20;99.90;;;;;;4987353;28;19937;-83
2021/03/17 11:33:22;;;;;;;;;;;19.20;99.90;;;;;;4995905;28;20447;-84
2021/03/17 11:35:49;;;;;;;;;;;19.20;99.90;;;;;;5000174;28;19937;-84
2021/03/17 11:38:16;;;;;;;;;;;19.10;99.90;;;;;;4996303;28;20020;-83
2021/03/17 11:40:43;;;;;;;;;;;19.10;99.90;;;;;;4995586;28;19935;-84
2021/03/17 11:43:11;;;;;;;;;;;19.00;99.90;;;;;;4987438;28;20352;-84
2021/03/17 11:45:39;;;;;;;;;;;19.00;99.90;;;;;;4992990;28;19944;-84
2021/03/17 11:48:06;;;;;;;;;;;18.90;99.90;;;;;;4995870;28;19957;-86
2021/03/17 11:50:34;;;;;;;;;;;18.90;99.90;;;;;;4995722;28;20029;-85
2021/03/17 11:53:07;;;;;;;;;;;18.80;99.90;;;;;;4995626;28;19914;-89
2021/03/17 11:55:34;;;;;;;;;;;18.70;99.90;;;;;;5001972;28;20336;-84
2021/03/17 11:58:01;;;;;;;;;;;18.70;99.90;;;;;;4990003;28;20052;-84
2021/03/17 12:00:27;;;;;;;;;;;18.70;99.90;;;;;;4996638;28;20268;-84
2021/03/17 12:02:54;;;;;;;;;;;18.70;99.90;;;;;;4996958;28;20040;-83
2021/03/17 12:05:21;;;;;;;;;;;18.70;99.90;;;;;;4996641;28;19969;-84
2021/03/17 12:07:48;;;;;;;;;;;18.70;99.90;;;;;;4996846;28;20331;-84
2021/03/17 12:10:16;;;;;;;;;;;18.70;99.90;;;;;;4996341;28;19920;-83
2021/03/17 12:12:43;;;;;;;;;;;18.60;99.90;;;;;;4996687;28;19964;-84
2021/03/17 12:15:14;;;;;;;;;;;18.60;99.90;;;;;;4996218;28;19921;-83
2021/03/17 12:17:41;;;;;;;;;;;18.50;99.90;;;;;;4998652;28;20357;-82
2021/03/17 12:20:09;;;;;;;;;;;18.50;99.90;;;;;;4995208;28;19910;-83
2021/03/17 12:22:36;;;;;;;;;;;18.50;99.90;;;;;;4995743;28;20004;-83
2021/03/17 12:25:07;;;;;;;;;;;18.50;99.90;;;;;;4994082;28;19964;-82
2021/03/17 12:27:37;;;;;;;;;;;18.60;99.90;;;;;;4994920;28;19925;-84
2021/03/17 12:30:04;;;;;;;;;;;18.60;99.90;;;;;;5009060;28;19961;-83
2021/03/17 12:32:34;;;;;;;;;;;18.50;99.90;;;;;;4976537;28;19916;-84
2021/03/17 12:35:00;;;;;;;;;;;18.60;99.90;;;;;;4983270;28;19996;-84
2021/03/17 12:37:27;;;;;;;;;;;18.60;99.90;;;;;;5002217;28;19929;-84
2021/03/17 12:39:54;;;;;;;;;;;18.60;99.90;;;;;;4990938;28;19918;-84
2021/03/17 12:42:20;;;;;;;;;;;18.70;99.90;;;;;;4994749;28;19913;-83
2021/03/17 12:44:47;;;;;;;;;;;18.60;99.90;;;;;;4994345;28;19913;-84
2021/03/17 12:47:14;;;;;;;;;;;18.70;99.90;;;;;;4994770;28;20372;-84
2021/03/17 12:49:40;;;;;;;;;;;18.70;99.90;;;;;;4994429;28;19914;-83
2021/03/17 12:52:09;;;;;;;;;;;18.70;99.90;;;;;;4995034;28;19913;-83
2021/03/17 12:54:35;;;;;;;;;;;18.60;99.90;;;;;;4995557;28;19909;-84
2021/03/17 12:57:08;;;;;;;;;;;18.50;99.90;;;;;;4976957;28;19911;-84
2021/03/17 12:59:37;;;;;;;;;;;18.60;99.90;;;;;;4974578;28;19917;-83
2021/03/17 13:02:03;;;;;;;;;;;18.50;99.90;;;;;;4974107;28;19910;-85
2021/03/17 13:04:30;;;;;;;;;;;18.60;99.90;;;;;;4973699;28;20308;-84
2021/03/17 13:06:57;;;;;;;;;;;18.60;99.90;;;;;;4975447;28;19918;-84
2021/03/17 13:09:23;;;;;;;;;;;18.60;99.90;;;;;;4974431;28;19910;-85
2021/03/17 13:11:50;;;;;;;;;;;18.50;99.90;;;;;;4990297;28;19910;-85
2021/03/17 13:14:17;;;;;;;;;;;18.60;99.90;;;;;;4975339;28;19910;-84
2021/03/17 13:16:43;;;;;;;;;;;18.50;99.90;;;;;;4990190;28;20004;-84
2021/03/17 13:19:10;;;;;;;;;;;18.60;99.90;;;;;;4987444;28;19953;-84
2021/03/17 13:21:37;;;;;;;;;;;18.50;99.90;;;;;;4994453;28;20364;-84
2021/03/17 13:24:04;;;;;;;;;;;18.50;99.90;;;;;;4994491;28;19914;-85
2021/03/17 13:26:30;;;;;;;;;;;18.60;99.90;;;;;;4994829;28;19918;-84
2021/03/17 13:28:57;;;;;;;;;;;18.60;99.90;;;;;;4993421;28;19917;-83
2021/03/17 13:31:24;;;;;;;;;;;18.60;99.90;;;;;;4992865;28;19921;-84
2021/03/17 13:33:50;;;;;;;;;;;18.60;99.90;;;;;;4994397;28;19910;-84
2021/03/17 13:36:17;;;;;;;;;;;18.60;99.90;;;;;;4993815;28;19933;-84
2021/03/17 13:38:44;;;;;;;;;;;18.60;99.90;;;;;;4993108;28;19914;-84
2021/03/17 13:41:10;;;;;;;;;;;18.60;99.90;;;;;;4994491;28;19985;-84
2021/03/17 13:43:38;;;;;;;;;;;18.70;99.90;;;;;;4994396;28;19910;-83
2021/03/17 13:46:06;;;;;;;;;;;18.70;99.90;;;;;;5008295;28;19922;-84
2021/03/17 13:48:32;;;;;;;;;;;18.80;99.90;;;;;;4994300;28;20394;-84
2021/03/17 13:50:59;;;;;;;;;;;18.80;99.90;;;;;;4992860;28;19921;-84
2021/03/17 13:53:26;;;;;;;;;;;18.90;99.90;;;;;;4994295;28;19914;-84
2021/03/17 13:55:52;;;;;;;;;;;18.90;99.90;;;;;;4993939;28;19914;-85
2021/03/17 13:58:19;;;;;;;;;;;18.90;99.90;;;;;;4993545;28;19918;-86
2021/03/17 14:00:46;;;;;;;;;;;18.90;99.90;;;;;;5005219;28;19937;-84
2021/03/17 14:03:12;;;;;;;;;;;18.90;99.90;;;;;;4994039;28;19921;-86
2021/03/17 14:05:39;;;;;;;;;;;19.00;99.90;;;;;;4993735;28;19917;-83
2021/03/17 14:08:07;;;;;;;;;;;18.90;99.90;;;;;;4994034;28;19962;-84
2021/03/17 14:10:35;;;;;;;;;;;18.90;99.90;;;;;;4992765;28;20257;-84
2021/03/17 14:13:03;;;;;;;;;;;18.90;99.90;;;;;;4992266;28;19921;-84
2021/03/17 14:15:30;;;;;;;;;;;18.90;99.90;;;;;;4994175;28;19927;-84
2021/03/17 14:17:57;;;;;;;;;;;18.80;99.90;;;;;;4993650;28;19945;-84
2021/03/17 14:20:26;;;;;;;;;;;18.80;99.90;;;;;;4991800;28;19937;-84
2021/03/17 14:22:53;;;;;;;;;;;18.80;99.90;;;;;;4976503;28;19914;-84
2021/03/17 14:25:21;;;;;;;;;;;18.80;99.90;;;;;;4994271;28;19909;-83
2021/03/17 14:27:47;;;;;;;;;;;18.80;99.90;;;;;;4992607;28;19918;-83
2021/03/17 14:30:14;;;;;;;;;;;18.70;99.90;;;;;;4993546;28;19914;-83
2021/03/17 14:32:41;;;;;;;;;;;18.60;99.90;;;;;;4994347;28;19914;-83